KLOR/LOR METAR and TAF weather

Enter ICAO airport designator
Station Type Date Time Source
KLOR METAR 2020/02/25 12:39 UTC NOAA

KLOR 251239Z AUTO 22003KT 3SM BR SCT008 SCT015 OVC030 17/17 A2983 RMK AO2 RAE13RAB24E39 SLP084


Station Type Date Time Source
KLOR Decoded METAR 2020/02/25 12:39 UTC NOAA

Fort Rucker, Lowe Army Heliport, AL, United States (KLOR) 31-21-32N 085-44-54W 93M
Feb 25, 2020 - 07:39 AM EST / 2020.02.25 1239 UTC
Wind: from the SW (220 degrees) at 3 MPH (3 KT):0
Visibility: 3 mile(s):0
Sky conditions: overcast
Weather: mist
Temperature: 62 F (17 C)
Dew Point: 62 F (17 C)
Relative Humidity: 100%
Pressure (altimeter): 29.83 in. Hg (1010 hPa)
ob: KLOR 251239Z AUTO 22003KT 3SM BR SCT008 SCT015 OVC030 17/17 A2983 RMK AO2 RAE13RAB24E39 SLP084
cycle: 12

Station Type Date Time Source
KLOR TAF UTC NOAA

Error!

Example: see airport list